CheckWX is a tool to help pilots better visualize weather data.  It is not intended as a substitute for an official pre-flight weather briefing.

06:45:20 UTC

DTTZ TAF
Tozeur Nefta International Airport
Tozeur, Tunisia
TAF DTTZ 160500Z 1606/1706 10005KT 8000 NSC BECMG 1607/1609 10015KT PROB40 TEMPO 1616/1624 10020G30KT 4000 SA

Jun-16@
06:00 UTC

Jun-16 @ 06:00 UTC

Jun-16@
07:00 UTC

Jun-16 @ 07:00 UTC

TAF DTTZ 160500Z 1606/1706 10005KT 8000 NSC
Wind
  • 100° at 5 KTS
Cloud Levels
  • No significant clouds

Jun-16@
07:00 UTC

Jun-16 @ 07:00 UTC

Jun-17@
06:00 UTC

Jun-17 @ 06:00 UTC

BECMG 1607/1609 10015KT

Becoming

Becoming Conditions expected by Sun, Jun 16, 2019 @ 09:00 UTC

Wind
  • 100° at 15 KTS
Cloud Levels
  • No significant clouds

Jun-16@
16:00 UTC

Jun-16 @ 16:00 UTC

Jun-17@
00:00 UTC

Jun-17 @ 00:00 UTC

PROB40 TEMPO 1616/1624 10020G30KT 4000 SA

Temporary - 40% Likelihood

Temporary - 40% Likelihood during this time.

Wind
  • 100° at 20 KTS
  • {Gusting to 30 KTS
Conditions
Sand